createdAt,value
2022-12-03T00:00:24.319Z,13.07
2022-12-03T00:03:10.070Z,15.05
2022-12-03T00:05:56.047Z,12.57
2022-12-03T00:08:41.583Z,11.70
2022-12-03T00:11:28.011Z,13.10
2022-12-03T00:14:13.632Z,14.45
2022-12-03T00:17:00.383Z,15.43
2022-12-03T00:19:46.294Z,13.05
2022-12-03T00:22:33.100Z,11.98
2022-12-03T00:25:19.267Z,10.77
2022-12-03T00:28:05.782Z,11.52
2022-12-03T00:30:54.265Z,11.90
2022-12-03T00:33:40.496Z,12.70
2022-12-03T00:36:25.901Z,13.75
2022-12-03T00:39:13.152Z,11.57
2022-12-03T00:41:59.710Z,11.77
2022-12-03T00:44:45.440Z,12.40
2022-12-03T00:47:30.830Z,12.48
2022-12-03T00:50:16.865Z,12.63
2022-12-03T00:53:02.643Z,11.27
2022-12-03T00:55:50.637Z,10.95
2022-12-03T00:58:36.303Z,12.68
2022-12-03T01:01:21.895Z,12.43
2022-12-03T01:04:07.582Z,11.75
2022-12-03T01:06:53.299Z,12.68
2022-12-03T01:09:38.989Z,13.65
2022-12-03T01:12:24.959Z,12.43
2022-12-03T01:15:11.067Z,13.80
2022-12-03T01:17:56.735Z,14.45
2022-12-03T01:20:42.220Z,14.00
2022-12-03T01:23:27.723Z,14.18
2022-12-03T01:26:13.735Z,15.07
2022-12-03T01:28:59.948Z,14.90
2022-12-03T01:32:03.919Z,14.68
2022-12-03T01:34:52.686Z,14.20
2022-12-03T01:37:38.933Z,12.88
2022-12-03T01:40:25.286Z,12.25
2022-12-03T01:43:11.016Z,12.93
2022-12-03T01:45:56.807Z,12.60
2022-12-03T01:48:43.005Z,13.43
2022-12-03T01:51:29.908Z,15.20
2022-12-03T01:54:22.362Z,14.93
2022-12-03T01:57:37.811Z,14.93
2022-12-03T02:00:26.958Z,18.90
2022-12-03T02:03:19.204Z,12.48
2022-12-03T02:06:10.121Z,17.00
2022-12-03T02:08:59.740Z,18.52
2022-12-03T02:11:49.287Z,13.27
2022-12-03T02:14:35.018Z,13.70
2022-12-03T02:17:21.018Z,13.38
2022-12-03T02:20:08.778Z,13.35
2022-12-03T02:23:27.072Z,10.18
2022-12-03T02:26:13.093Z,12.85
2022-12-03T02:28:58.787Z,16.40
2022-12-03T02:31:44.628Z,11.93
2022-12-03T02:34:42.176Z,12.80
2022-12-03T02:37:34.731Z,15.77
2022-12-03T02:40:24.397Z,20.40
2022-12-03T02:43:11.328Z,14.68
2022-12-03T02:45:59.863Z,11.25
2022-12-03T02:48:45.809Z,12.20
2022-12-03T02:51:32.622Z,10.63
2022-12-03T02:54:18.331Z,10.70
2022-12-03T02:57:04.250Z,10.43
2022-12-03T02:59:50.126Z,11.93
2022-12-03T03:02:37.290Z,11.00
2022-12-03T03:05:24.402Z,13.07
2022-12-03T03:08:11.659Z,11.40
2022-12-03T03:10:59.624Z,9.82
2022-12-03T03:13:45.486Z,10.57
2022-12-03T03:16:32.982Z,11.43
2022-12-03T03:19:18.729Z,11.40
2022-12-03T03:22:06.721Z,10.65
2022-12-03T03:24:52.692Z,11.52
2022-12-03T03:27:40.495Z,11.40
2022-12-03T03:30:26.336Z,12.25
2022-12-03T03:33:13.579Z,11.77
2022-12-03T03:36:00.450Z,10.68
2022-12-03T03:38:47.141Z,12.48
2022-12-03T03:41:34.612Z,11.20
2022-12-03T03:44:20.168Z,12.15
2022-12-03T03:47:06.508Z,10.43
2022-12-03T03:49:53.032Z,13.13
2022-12-03T03:52:40.639Z,11.20
2022-12-03T03:55:26.388Z,14.38
2022-12-03T03:58:12.266Z,13.32
2022-12-03T04:00:58.100Z,12.63
2022-12-03T04:03:44.023Z,11.30
2022-12-03T04:06:29.820Z,11.73
2022-12-03T04:09:15.431Z,10.65
2022-12-03T04:12:19.816Z,11.00
2022-12-03T04:15:06.098Z,10.23
2022-12-03T04:18:10.856Z,10.07
2022-12-03T04:21:16.398Z,9.80
2022-12-03T04:24:02.070Z,9.85
2022-12-03T04:27:06.069Z,9.90
2022-12-03T04:29:51.543Z,11.23
2022-12-03T04:32:55.429Z,12.23
2022-12-03T04:35:43.793Z,11.20
2022-12-03T04:38:29.442Z,10.63
2022-12-03T04:41:15.361Z,11.57
2022-12-03T04:44:19.479Z,12.05
2022-12-03T04:47:13.917Z,12.57
2022-12-03T04:49:59.357Z,10.02
2022-12-03T04:52:45.097Z,11.75
2022-12-03T04:55:31.142Z,10.98
2022-12-03T04:58:16.427Z,10.68
2022-12-03T05:01:02.078Z,11.07
2022-12-03T05:03:47.631Z,12.05
2022-12-03T05:06:33.301Z,11.65
2022-12-03T05:09:19.094Z,10.30
2022-12-03T05:12:04.912Z,10.82
2022-12-03T05:14:50.730Z,9.98
2022-12-03T05:17:36.148Z,9.15
2022-12-03T05:20:40.144Z,9.73
2022-12-03T05:23:25.844Z,10.15
2022-12-03T05:26:11.623Z,9.10
2022-12-03T05:28:57.464Z,9.90
2022-12-03T05:31:44.842Z,11.98
2022-12-03T05:34:30.324Z,10.93
2022-12-03T05:37:16.289Z,11.68
2022-12-03T05:40:01.949Z,11.43
2022-12-03T05:42:53.490Z,11.02
2022-12-03T05:45:41.431Z,10.75
2022-12-03T05:48:27.162Z,11.05
2022-12-03T05:51:12.693Z,11.45
2022-12-03T05:53:58.240Z,9.27
2022-12-03T05:56:43.919Z,11.13
2022-12-03T05:59:29.548Z,10.00
2022-12-03T06:02:15.241Z,10.48
2022-12-03T06:05:00.498Z,9.90
2022-12-03T06:07:47.468Z,10.00
2022-12-03T06:10:33.248Z,11.10
2022-12-03T06:13:18.542Z,11.07
2022-12-03T06:16:04.690Z,10.43
2022-12-03T06:18:50.291Z,12.05
2022-12-03T06:21:35.671Z,10.43
2022-12-03T06:24:21.064Z,10.75
2022-12-03T06:27:06.556Z,13.40
2022-12-03T06:29:52.538Z,10.30
2022-12-03T06:32:38.456Z,10.52
2022-12-03T06:35:24.495Z,11.75
2022-12-03T06:38:10.102Z,10.40
2022-12-03T06:40:55.567Z,10.40
2022-12-03T06:43:40.958Z,10.63
2022-12-03T06:46:26.542Z,10.65
2022-12-03T06:49:11.943Z,11.48
2022-12-03T06:51:57.580Z,9.80
2022-12-03T06:54:43.378Z,11.90
2022-12-03T06:57:28.962Z,10.95
2022-12-03T07:00:14.959Z,10.75
2022-12-03T07:03:00.831Z,12.15
2022-12-03T07:05:46.733Z,11.73
2022-12-03T07:08:36.118Z,11.10
2022-12-03T07:11:40.601Z,11.95
2022-12-03T07:14:26.246Z,10.75
2022-12-03T07:17:11.670Z,10.52
2022-12-03T07:19:57.799Z,11.00
2022-12-03T07:22:43.344Z,10.68
2022-12-03T07:25:29.830Z,12.73
2022-12-03T07:28:15.318Z,10.40
2022-12-03T07:31:01.909Z,11.40
2022-12-03T07:33:47.974Z,11.05
2022-12-03T07:36:33.624Z,11.85
2022-12-03T07:39:20.364Z,10.10
2022-12-03T07:42:06.292Z,11.90
2022-12-03T07:44:51.932Z,11.20
2022-12-03T07:47:37.610Z,14.70
2022-12-03T07:50:23.022Z,12.65
2022-12-03T07:53:08.594Z,11.05
2022-12-03T07:55:54.024Z,11.18
2022-12-03T07:58:39.666Z,13.82
2022-12-03T08:01:25.131Z,10.43
2022-12-03T08:04:11.610Z,13.85
2022-12-03T08:06:56.932Z,13.70
2022-12-03T08:09:42.887Z,13.85
2022-12-03T08:12:40.168Z,12.85
2022-12-03T08:15:31.157Z,13.90
2022-12-03T08:18:21.395Z,14.40
2022-12-03T08:21:11.474Z,14.10
2022-12-03T08:24:15.849Z,13.82
2022-12-03T08:27:01.903Z,15.70
2022-12-03T08:29:47.662Z,14.48
2022-12-03T08:32:33.139Z,15.27
2022-12-03T08:35:25.559Z,14.60
2022-12-03T08:38:12.897Z,13.02
2022-12-03T08:40:59.163Z,16.48
2022-12-03T08:43:44.652Z,15.43
2022-12-03T08:46:30.801Z,17.42
2022-12-03T08:49:17.023Z,15.27
2022-12-03T08:52:15.726Z,14.40
2022-12-03T08:55:30.911Z,16.50
2022-12-03T08:58:22.307Z,15.85
2022-12-03T09:01:11.108Z,15.70
2022-12-03T09:04:02.180Z,14.63
2022-12-03T09:06:47.838Z,15.90
2022-12-03T09:09:34.556Z,14.82
2022-12-03T09:12:20.278Z,14.48
2022-12-03T09:15:06.340Z,16.02
2022-12-03T09:17:51.973Z,13.88
2022-12-03T09:20:37.553Z,14.02
2022-12-03T09:23:23.776Z,14.38
2022-12-03T09:26:09.289Z,14.93
2022-12-03T09:28:54.761Z,15.23
2022-12-03T09:31:40.623Z,13.70
2022-12-03T09:34:26.070Z,14.90
2022-12-03T09:37:11.816Z,15.10
2022-12-03T09:39:57.443Z,13.60
2022-12-03T09:42:43.032Z,15.15
2022-12-03T09:45:28.756Z,15.82
2022-12-03T09:48:19.699Z,15.85
2022-12-03T09:51:05.086Z,15.10
2022-12-03T09:53:50.639Z,14.70
2022-12-03T09:56:37.726Z,15.27
2022-12-03T09:59:26.483Z,13.57
2022-12-03T10:02:30.617Z,12.07
2022-12-03T10:05:19.810Z,13.40
2022-12-03T10:10:59.388Z,15.27
2022-12-03T10:13:46.259Z,12.77
2022-12-03T10:16:33.784Z,13.18
2022-12-03T10:19:25.952Z,15.27
2022-12-03T10:22:11.581Z,14.10
2022-12-03T10:25:12.551Z,16.80
2022-12-03T10:28:00.737Z,16.40
2022-12-03T10:30:57.583Z,13.65
2022-12-03T10:33:45.806Z,15.95
2022-12-03T10:36:31.487Z,15.10
2022-12-03T10:39:17.255Z,14.60
2022-12-03T10:42:16.182Z,17.02
2022-12-03T10:45:20.842Z,16.33
2022-12-03T10:48:12.485Z,15.77
2022-12-03T10:51:16.960Z,17.50
2022-12-03T10:54:03.495Z,15.40
2022-12-03T10:56:51.364Z,15.48
2022-12-03T10:59:39.822Z,19.42
2022-12-03T11:02:26.331Z,21.55
2022-12-03T11:05:21.802Z,18.48
2022-12-03T11:08:16.365Z,17.38
2022-12-03T11:11:16.087Z,21.42
2022-12-03T11:14:04.420Z,18.35
2022-12-03T11:16:52.663Z,19.92
2022-12-03T11:19:44.704Z,20.02
2022-12-03T11:22:47.609Z,19.90
2022-12-03T11:25:46.882Z,17.58
2022-12-03T11:28:34.259Z,18.40
2022-12-03T11:31:39.461Z,20.90
2022-12-03T11:34:25.024Z,18.55
2022-12-03T11:37:10.518Z,23.52
2022-12-03T11:39:59.937Z,24.00
2022-12-03T11:42:48.094Z,22.13
2022-12-03T11:45:37.193Z,20.35
2022-12-03T11:48:23.113Z,18.57
2022-12-03T11:51:14.675Z,21.08
2022-12-03T11:54:00.878Z,21.60
2022-12-03T11:56:51.262Z,21.98
2022-12-03T11:59:36.548Z,21.10
2022-12-03T12:02:25.030Z,22.98
2022-12-03T12:05:46.275Z,20.73
2022-12-03T12:08:33.812Z,23.15
2022-12-03T12:11:26.554Z,21.98
2022-12-03T12:14:13.547Z,19.92
2022-12-03T12:17:03.219Z,19.48
2022-12-03T12:19:54.196Z,22.90
2022-12-03T12:22:40.345Z,23.80
2022-12-03T12:25:40.803Z,22.60
2022-12-03T12:28:26.419Z,20.67
2022-12-03T12:31:11.954Z,22.80
2022-12-03T12:33:57.297Z,37.08
2022-12-03T12:36:42.814Z,25.20
2022-12-03T12:39:28.481Z,23.52
2022-12-03T12:42:32.819Z,24.08
2022-12-03T12:45:21.370Z,20.05
2022-12-03T12:48:09.980Z,21.90
2022-12-03T12:51:11.197Z,23.58
2022-12-03T12:54:13.927Z,19.30
2022-12-03T12:56:59.352Z,22.73
2022-12-03T12:59:45.223Z,20.48
2022-12-03T13:02:31.995Z,22.25
2022-12-03T13:05:18.160Z,22.02
2022-12-03T13:08:20.366Z,20.27
2022-12-03T13:11:11.876Z,23.23
2022-12-03T13:14:12.588Z,20.70
2022-12-03T13:17:00.936Z,21.80
2022-12-03T13:20:01.994Z,22.50
2022-12-03T13:22:49.058Z,23.42
2022-12-03T13:25:59.196Z,22.33
2022-12-03T13:28:43.207Z,22.13
2022-12-03T13:31:34.177Z,23.42
2022-12-03T13:34:31.101Z,23.20
2022-12-03T13:37:25.319Z,21.75
2022-12-03T13:40:26.575Z,20.92
2022-12-03T13:43:18.603Z,24.73
2022-12-03T13:46:04.625Z,24.42
2022-12-03T13:48:50.329Z,23.55
2022-12-03T13:51:36.060Z,25.42
2022-12-03T13:54:26.174Z,21.80
2022-12-03T13:57:12.882Z,21.42
2022-12-03T13:59:59.755Z,24.90
2022-12-03T14:02:45.299Z,24.35
2022-12-03T14:05:30.815Z,22.00
2022-12-03T14:08:16.687Z,26.05
2022-12-03T14:11:02.307Z,22.27
2022-12-03T14:13:48.092Z,21.70
2022-12-03T14:16:33.811Z,26.90
2022-12-03T14:19:19.634Z,25.13
2022-12-03T14:22:07.936Z,24.63
2022-12-03T14:24:54.303Z,25.75
2022-12-03T14:27:40.187Z,20.58
2022-12-03T14:30:26.129Z,26.33
2022-12-03T14:33:11.920Z,22.73
2022-12-03T14:35:57.530Z,23.85
2022-12-03T14:38:43.151Z,33.58
2022-12-03T14:41:47.142Z,26.27
2022-12-03T14:44:33.118Z,23.20
2022-12-03T14:47:22.693Z,23.00
2022-12-03T14:50:08.642Z,25.25
2022-12-03T14:52:54.095Z,24.48
2022-12-03T14:55:39.507Z,24.67
2022-12-03T14:58:27.226Z,23.45
2022-12-03T15:01:13.207Z,22.20
2022-12-03T15:03:58.658Z,24.67
2022-12-03T15:06:44.382Z,24.95
2022-12-03T15:09:30.112Z,24.35
2022-12-03T15:12:15.761Z,26.02
2022-12-03T15:15:01.574Z,26.05
2022-12-03T15:17:48.794Z,22.70
2022-12-03T15:20:38.987Z,21.90
2022-12-03T15:23:24.803Z,24.65
2022-12-03T15:26:10.234Z,22.65
2022-12-03T15:28:55.960Z,22.27
2022-12-03T15:31:41.583Z,21.83
2022-12-03T15:34:28.232Z,22.25
2022-12-03T15:37:14.900Z,23.80
2022-12-03T15:40:13.860Z,22.00
2022-12-03T15:43:07.732Z,22.02
2022-12-03T15:45:57.730Z,22.00
2022-12-03T15:48:43.907Z,22.98
2022-12-03T15:51:30.422Z,25.60
2022-12-03T15:54:16.354Z,24.38
2022-12-03T15:57:02.193Z,24.33
2022-12-03T15:59:48.810Z,23.95
2022-12-03T16:02:34.513Z,21.85
2022-12-03T16:05:20.871Z,24.42
2022-12-03T16:08:07.779Z,26.42
2022-12-03T16:10:55.422Z,27.27
2022-12-03T16:13:41.230Z,26.40
2022-12-03T16:16:26.945Z,23.50
2022-12-03T16:19:13.197Z,23.02
2022-12-03T16:21:59.103Z,26.45
2022-12-03T16:24:44.717Z,23.85
2022-12-03T16:27:30.248Z,23.05
2022-12-03T16:30:16.231Z,21.77
2022-12-03T16:33:02.185Z,23.05
2022-12-03T16:35:47.824Z,23.88
2022-12-03T16:38:35.036Z,22.90
2022-12-03T16:41:22.417Z,19.63
2022-12-03T16:44:09.350Z,21.45
2022-12-03T16:46:55.786Z,24.30
2022-12-03T16:49:41.193Z,23.17
2022-12-03T16:52:26.820Z,28.52
2022-12-03T16:55:12.694Z,26.77
2022-12-03T16:57:58.308Z,24.45
2022-12-03T17:00:44.935Z,22.70
2022-12-03T17:03:34.080Z,23.65
2022-12-03T17:06:20.090Z,25.02
2022-12-03T17:09:05.829Z,19.88
2022-12-03T17:11:51.779Z,23.80
2022-12-03T17:14:37.493Z,20.67
2022-12-03T17:17:23.003Z,23.00
2022-12-03T17:20:09.054Z,24.08
2022-12-03T17:22:54.780Z,22.35
2022-12-03T17:25:41.383Z,25.02
2022-12-03T17:28:27.508Z,24.70
2022-12-03T17:31:13.525Z,21.00
2022-12-03T17:33:59.533Z,22.77
2022-12-03T17:36:45.119Z,23.95
2022-12-03T17:39:31.633Z,22.92
2022-12-03T17:42:18.256Z,21.23
2022-12-03T17:45:06.749Z,20.10
2022-12-03T17:47:52.777Z,20.63
2022-12-03T17:50:38.491Z,18.58
2022-12-03T17:53:24.523Z,21.63
2022-12-03T17:56:10.481Z,20.75
2022-12-03T17:58:57.168Z,23.52
2022-12-03T18:01:45.960Z,21.33
2022-12-03T18:04:32.057Z,20.53
2022-12-03T18:07:17.926Z,19.83
2022-12-03T18:10:04.088Z,19.42
2022-12-03T18:12:50.525Z,22.33
2022-12-03T18:15:39.124Z,21.42
2022-12-03T18:18:56.682Z,21.40
2022-12-03T18:21:44.466Z,22.00
2022-12-03T18:24:30.857Z,22.23
2022-12-03T18:27:17.432Z,22.08
2022-12-03T18:30:03.482Z,22.00
2022-12-03T18:32:49.734Z,23.63
2022-12-03T18:35:35.502Z,23.20
2022-12-03T18:38:22.112Z,22.05
2022-12-03T18:41:08.631Z,21.17
2022-12-03T18:43:57.041Z,21.75
2022-12-03T18:46:58.608Z,18.60
2022-12-03T18:49:44.543Z,20.05
2022-12-03T18:52:32.945Z,22.05
2022-12-03T18:55:30.936Z,22.25
2022-12-03T18:59:20.898Z,23.13
2022-12-03T19:02:08.156Z,19.58
2022-12-03T19:04:54.136Z,17.85
2022-12-03T19:07:39.962Z,22.27
2022-12-03T19:10:31.180Z,18.25
2022-12-03T19:13:21.154Z,16.48
2022-12-03T19:16:09.045Z,19.50
2022-12-03T19:18:56.035Z,21.10
2022-12-03T19:21:41.646Z,18.08
2022-12-03T19:24:27.427Z,20.98
2022-12-03T19:27:13.152Z,16.20
2022-12-03T19:29:59.011Z,15.90
2022-12-03T19:32:45.747Z,17.20
2022-12-03T19:35:32.226Z,16.55
2022-12-03T19:38:17.961Z,14.15
2022-12-03T19:41:06.785Z,15.07
2022-12-03T19:43:54.564Z,16.55
2022-12-03T19:46:40.867Z,13.90
2022-12-03T19:49:27.235Z,14.82
2022-12-03T19:52:12.618Z,13.30
2022-12-03T19:54:58.054Z,15.35
2022-12-03T19:57:44.295Z,14.05
2022-12-03T20:00:30.585Z,16.60
2022-12-03T20:03:16.268Z,17.25
2022-12-03T20:06:02.225Z,14.57
2022-12-03T20:08:47.847Z,14.88
2022-12-03T20:11:34.964Z,14.27
2022-12-03T20:14:20.799Z,16.35
2022-12-03T20:17:06.664Z,15.30
2022-12-03T20:19:52.598Z,14.30
2022-12-03T20:22:39.952Z,13.00
2022-12-03T20:25:25.634Z,13.57
2022-12-03T20:28:11.028Z,14.20
2022-12-03T20:31:19.945Z,12.23
2022-12-03T20:34:06.469Z,13.52
2022-12-03T20:36:51.950Z,13.90
2022-12-03T20:39:38.226Z,17.50
2022-12-03T20:42:24.020Z,16.92
2022-12-03T20:45:10.354Z,15.93
2022-12-03T20:47:56.059Z,14.88
2022-12-03T20:50:41.689Z,12.13
2022-12-03T20:53:27.288Z,13.63
2022-12-03T20:56:26.039Z,13.27
2022-12-03T20:59:15.355Z,13.65
2022-12-03T21:02:01.216Z,13.20
2022-12-03T21:04:46.998Z,12.80
2022-12-03T21:07:32.638Z,14.95
2022-12-03T21:10:44.832Z,14.75
2022-12-03T21:13:32.443Z,15.48
2022-12-03T21:16:39.510Z,15.32
2022-12-03T21:19:27.550Z,16.13
2022-12-03T21:22:14.725Z,16.50
2022-12-03T21:25:00.396Z,19.90
2022-12-03T21:27:46.834Z,32.88
2022-12-03T21:30:33.089Z,23.15
2022-12-03T21:33:19.309Z,16.60
2022-12-03T21:36:06.480Z,16.95
2022-12-03T21:38:52.079Z,15.63
2022-12-03T21:41:37.830Z,17.38
2022-12-03T21:44:23.470Z,17.58
2022-12-03T21:47:14.219Z,16.48
2022-12-03T21:50:00.593Z,16.48
2022-12-03T21:52:50.423Z,17.40
2022-12-03T21:55:40.551Z,14.88
2022-12-03T21:58:26.256Z,17.25
2022-12-03T22:01:20.679Z,19.00
2022-12-03T22:04:06.226Z,15.65
2022-12-03T22:06:51.804Z,15.18
2022-12-03T22:09:38.386Z,16.23
2022-12-03T22:12:24.952Z,15.93
2022-12-03T22:15:18.117Z,18.10
2022-12-03T22:18:07.592Z,16.60
2022-12-03T22:20:52.982Z,17.48
2022-12-03T22:23:38.739Z,17.13
2022-12-03T22:26:25.292Z,17.02
2022-12-03T22:29:12.053Z,15.77
2022-12-03T22:31:57.901Z,16.58
2022-12-03T22:34:47.096Z,18.13
2022-12-03T22:37:32.918Z,16.52
2022-12-03T22:40:18.637Z,18.60
2022-12-03T22:43:04.164Z,19.73
2022-12-03T22:45:54.901Z,18.48
2022-12-03T22:48:42.605Z,18.45
2022-12-03T22:51:29.001Z,19.13
2022-12-03T22:54:18.292Z,19.40
2022-12-03T22:57:09.207Z,21.73
2022-12-03T22:59:55.344Z,21.52
2022-12-03T23:02:41.260Z,20.17
2022-12-03T23:05:30.879Z,19.02
2022-12-03T23:08:20.505Z,23.92
2022-12-03T23:11:06.219Z,23.45
2022-12-03T23:13:52.680Z,16.25
2022-12-03T23:16:39.364Z,13.48
2022-12-03T23:19:25.026Z,17.00
2022-12-03T23:22:10.894Z,17.58
2022-12-03T23:24:56.568Z,18.73
2022-12-03T23:27:43.210Z,21.48
2022-12-03T23:30:28.801Z,17.92
2022-12-03T23:33:14.390Z,18.70
2022-12-03T23:35:59.900Z,17.05
2022-12-03T23:38:45.547Z,17.05
2022-12-03T23:41:31.117Z,17.30
2022-12-03T23:44:18.525Z,19.52
2022-12-03T23:47:04.450Z,21.35
2022-12-03T23:49:50.058Z,27.15
2022-12-03T23:52:36.490Z,34.50
2022-12-03T23:55:23.951Z,35.55
2022-12-03T23:58:09.735Z,26.42
